Time;durP1;ratioP1;P1;durP2;ratioP2;P2;SDS_P1;SDS_P2;PMS_P1;PMS_P2;Temp;Humidity;BMP_temperature;BMP_pressure;BME280_temperature;BME280_humidity;BME280_pressure;Samples;Min_cycle;Max_cycle;Signal;HPM_P1;HPM_P2
2021/11/27 00:00:47;;;;;;;;;;;4.10;99.90;;;;;;4844754;29;20062;-80
2021/11/27 00:03:15;;;;;;;6.95;1.52;;;4.10;99.90;;;;;;4845212;29;19916;-80
2021/11/27 00:05:42;;;;;;;2.20;0.50;;;4.10;99.90;;;;;;4860948;29;20036;-81
2021/11/27 00:08:09;;;;;;;2.55;0.20;;;4.10;99.90;;;;;;4860797;29;20034;-80
2021/11/27 00:10:37;;;;;;;3.83;0.60;;;4.10;99.90;;;;;;4861104;29;20033;-79
2021/11/27 00:13:05;;;;;;;0.70;0.60;;;4.10;99.90;;;;;;4840849;29;20545;-80
2021/11/27 00:15:31;;;;;;;;;;;4.20;99.90;;;;;;4843810;29;20053;-81
2021/11/27 00:17:58;;;;;;;2.70;0.40;;;4.20;99.90;;;;;;4860805;29;20301;-81
2021/11/27 00:20:28;;;;;;;4.80;0.88;;;4.10;99.90;;;;;;4843437;29;20057;-80
2021/11/27 00:22:55;;;;;;;5.78;0.70;;;4.20;99.90;;;;;;4859297;29;20086;-81
2021/11/27 00:25:21;;;;;;;5.93;0.70;;;4.20;99.90;;;;;;4846154;29;20080;-80
2021/11/27 00:27:48;;;;;;;1.02;0.60;;;4.20;99.90;;;;;;4844243;29;20469;-81
2021/11/27 00:30:18;;;;;;;1.90;0.55;;;4.20;99.90;;;;;;4862870;29;20439;-81
2021/11/27 00:32:44;;;;;;;4.60;0.63;;;4.20;99.90;;;;;;4860777;29;20037;-81
2021/11/27 00:35:10;;;;;;;5.57;0.50;;;4.20;99.90;;;;;;4860507;29;20411;-81
2021/11/27 00:37:36;;;;;;;2.25;0.82;;;4.10;99.90;;;;;;4843617;29;20022;-81
2021/11/27 00:40:05;;;;;;;2.83;0.70;;;4.10;99.90;;;;;;4842275;29;20034;-80
2021/11/27 00:42:31;;;;;;;7.28;1.55;;;4.10;99.90;;;;;;4860246;29;20029;-81
2021/11/27 00:44:56;;;;;;;3.40;0.45;;;4.10;99.90;;;;;;4844184;29;20506;-79
2021/11/27 00:47:22;;;;;;;1.98;1.05;;;4.10;99.90;;;;;;4860205;29;20041;-82
2021/11/27 00:49:53;;;;;;;2.30;0.80;;;4.20;99.90;;;;;;4862966;29;20049;-81
2021/11/27 00:52:22;;;;;;;5.97;0.88;;;4.20;99.90;;;;;;4851785;29;20045;-81
2021/11/27 00:54:48;;;;;;;2.33;0.85;;;4.20;99.90;;;;;;4854495;29;20294;-80
2021/11/27 00:57:14;;;;;;;4.32;0.68;;;4.20;99.90;;;;;;4855989;29;20029;-79
2021/11/27 00:59:40;;;;;;;3.03;0.77;;;4.20;99.90;;;;;;4851541;29;20483;-82
2021/11/27 01:02:06;;;;;;;3.15;0.55;;;4.20;99.90;;;;;;4867457;29;20064;-79
2021/11/27 01:04:31;;;;;;;1.52;0.68;;;4.20;99.90;;;;;;4868049;29;20044;-80
2021/11/27 01:06:57;;;;;;;5.35;0.82;;;4.10;99.90;;;;;;4872096;29;20030;-79
2021/11/27 01:09:23;;;;;;;4.20;0.52;;;4.20;99.90;;;;;;4880630;29;20047;-79
2021/11/27 01:11:53;;;;;;;6.53;0.52;;;4.20;99.90;;;;;;4878116;29;20089;-81
2021/11/27 01:14:22;;;;;;;2.28;1.40;;;4.20;99.90;;;;;;4885770;29;20034;-79
2021/11/27 01:16:52;;;;;;;1.15;0.30;;;4.20;99.90;;;;;;4871208;29;20166;-80
2021/11/27 01:19:19;;;;;;;0.32;0.17;;;4.20;99.90;;;;;;4885945;29;20037;-79
2021/11/27 01:21:49;;;;;;;10.60;0.50;;;4.20;99.90;;;;;;4865072;29;20059;-79
2021/11/27 01:24:16;;;;;;;0.85;0.20;;;4.10;99.90;;;;;;4858118;29;20040;-80
2021/11/27 01:26:42;;;;;;;5.75;0.52;;;4.20;99.90;;;;;;4863524;29;20010;-79
2021/11/27 01:29:08;;;;;;;7.90;0.30;;;4.10;99.90;;;;;;4886426;29;20078;-79
2021/11/27 01:31:35;;;;;;;1.55;0.35;;;4.10;99.90;;;;;;4879648;29;20045;-80
2021/11/27 01:34:02;;;;;;;2.55;0.35;;;4.10;99.90;;;;;;4851722;29;20037;-80
2021/11/27 01:36:27;;;;;;;1.10;0.40;;;4.10;99.90;;;;;;4850770;29;20037;-80
2021/11/27 01:38:53;;;;;;;0.88;0.40;;;4.10;99.90;;;;;;4864632;29;20036;-80
2021/11/27 01:41:19;;;;;;;2.42;0.50;;;4.00;99.90;;;;;;4863773;29;20064;-80
2021/11/27 01:43:45;;;;;;;5.18;0.43;;;4.00;99.90;;;;;;4847761;29;20054;-79
2021/11/27 01:46:12;;;;;;;4.22;0.50;;;4.00;99.90;;;;;;4863427;29;20030;-79
2021/11/27 01:48:38;;;;;;;1.10;0.40;;;4.00;99.90;;;;;;4863410;29;20030;-79
2021/11/27 01:51:24;;;;;;;9.73;0.90;;;4.10;99.90;;;;;;4848073;29;20030;-79
2021/11/27 01:53:55;;;;;;;3.35;0.47;;;4.10;99.90;;;;;;4861370;29;20038;-80
2021/11/27 01:56:26;;;;;;;2.42;0.30;;;4.00;99.90;;;;;;4863649;29;20100;-80
2021/11/27 01:58:52;;;;;;;1.38;0.47;;;4.00;99.90;;;;;;4864433;29;20487;-79
2021/11/27 02:01:22;;;;;;;0.98;0.30;;;4.00;99.90;;;;;;4846499;29;20029;-79
2021/11/27 02:03:48;;;;;;;1.40;0.52;;;4.00;99.90;;;;;;4846919;29;20030;-80
2021/11/27 02:06:15;;;;;;;0.20;0.10;;;4.10;99.90;;;;;;4849803;29;20021;-80
2021/11/27 02:08:43;;;;;;;1.70;0.52;;;4.10;99.90;;;;;;4870070;29;20053;-80
2021/11/27 02:11:12;;;;;;;3.55;0.30;;;4.10;99.90;;;;;;4846565;29;20041;-81
2021/11/27 02:13:37;;;;;;;2.55;0.30;;;4.20;99.90;;;;;;4863617;29;20038;-80
2021/11/27 02:16:03;;;;;;;0.55;0.20;;;4.20;99.90;;;;;;4863111;29;20556;-80
2021/11/27 02:18:29;;;;;;;3.13;0.55;;;4.20;99.90;;;;;;4847285;29;20069;-81
2021/11/27 02:20:58;;;;;;;2.22;0.57;;;4.20;99.90;;;;;;4845319;29;20081;-80
2021/11/27 02:23:25;;;;;;;2.28;0.40;;;4.20;99.90;;;;;;4863164;29;20076;-80
2021/11/27 02:25:50;;;;;;;3.63;0.10;;;4.30;99.90;;;;;;4864057;29;20032;-80
2021/11/27 02:28:16;;;;;;;3.50;0.20;;;4.30;99.90;;;;;;4844586;29;20558;-79
2021/11/27 02:30:42;;;;;;;0.93;0.43;;;4.30;99.90;;;;;;4846997;29;20093;-80
2021/11/27 02:33:08;;;;;;;1.30;0.70;;;4.20;99.90;;;;;;4846830;29;20128;-81
2021/11/27 02:35:34;;;;;;;6.72;0.40;;;4.30;99.90;;;;;;4863119;29;20036;-80
2021/11/27 02:37:59;;;;;;;1.65;0.47;;;4.30;99.90;;;;;;4846069;29;20078;-81
2021/11/27 02:40:26;;;;;;;1.75;0.28;;;4.20;99.90;;;;;;4846483;29;20423;-80
2021/11/27 02:42:52;;;;;;;4.32;0.50;;;4.20;99.90;;;;;;4862995;29;20085;-81
2021/11/27 02:45:18;;;;;;;2.22;0.20;;;4.10;99.90;;;;;;4846313;29;20497;-80
2021/11/27 02:47:43;;;;;;;8.90;0.43;;;4.10;99.90;;;;;;4847350;29;20025;-80
2021/11/27 02:50:12;;;;;;;3.08;0.63;;;4.10;99.90;;;;;;4862628;29;20057;-81
2021/11/27 02:52:38;;;;;;;0.73;0.30;;;4.00;99.90;;;;;;4846125;29;20037;-79
2021/11/27 02:55:06;;;;;;;5.82;0.65;;;4.00;99.90;;;;;;4846608;29;20485;-79
2021/11/27 02:57:32;;;;;;;2.47;0.52;;;4.00;99.90;;;;;;4862449;29;20030;-79
2021/11/27 02:59:59;;;;;;;2.28;0.25;;;4.00;99.90;;;;;;4846121;29;20048;-80
2021/11/27 03:02:26;;;;;;;0.10;0.10;;;4.00;99.90;;;;;;4845920;29;20109;-80
2021/11/27 03:04:52;;;;;;;4.68;0.40;;;4.00;99.90;;;;;;4846193;29;20562;-80
2021/11/27 03:07:20;;;;;;;2.97;0.38;;;4.00;99.90;;;;;;4863467;29;20077;-82
2021/11/27 03:09:46;;;;;;;0.10;0.10;;;3.90;99.90;;;;;;4852511;29;20037;-81
2021/11/27 03:12:12;;;;;;;4.18;0.32;;;3.90;99.90;;;;;;4862179;29;20036;-80
2021/11/27 03:14:38;;;;;;;0.35;0.20;;;4.00;99.90;;;;;;4863088;29;20026;-81
2021/11/27 03:17:05;;;;;;;2.78;0.45;;;3.90;99.90;;;;;;4861901;29;20041;-82
2021/11/27 03:19:34;;;;;;;1.02;0.30;;;3.90;99.90;;;;;;4846572;29;20029;-79
2021/11/27 03:22:00;;;;;;;1.45;0.10;;;3.90;99.90;;;;;;4862635;29;20026;-81
2021/11/27 03:24:26;;;;;;;2.28;0.52;;;3.90;99.90;;;;;;4862360;29;20042;-80
2021/11/27 03:26:52;;;;;;;2.55;0.40;;;3.90;99.90;;;;;;4845593;29;20040;-81
2021/11/27 03:29:18;;;;;;;1.27;0.30;;;3.90;99.90;;;;;;4845881;29;20041;-80
2021/11/27 03:31:44;;;;;;;6.07;0.43;;;3.90;99.90;;;;;;4861771;29;20037;-81
2021/11/27 03:34:10;;;;;;;0.60;0.10;;;3.90;99.90;;;;;;4861387;29;20078;-80
2021/11/27 03:36:36;;;;;;;2.47;0.17;;;3.90;99.90;;;;;;4858980;29;20061;-80
2021/11/27 03:39:04;;;;;;;1.10;0.20;;;3.90;99.90;;;;;;4872094;29;20109;-80
2021/11/27 03:41:29;;;;;;;;;;;3.90;99.90;;;;;;4845520;29;20047;-80
2021/11/27 03:43:55;;;;;;;1.15;0.32;;;3.90;99.90;;;;;;4862136;29;20373;-80
2021/11/27 03:46:21;;;;;;;3.10;0.20;;;3.90;99.90;;;;;;4845220;29;20037;-80
2021/11/27 03:48:47;;;;;;;0.20;0.10;;;3.90;99.90;;;;;;4845227;29;20125;-81
2021/11/27 03:51:17;;;;;;;2.17;0.20;;;3.90;99.90;;;;;;4845143;29;20082;-81
2021/11/27 03:53:44;;;;;;;0.13;0.10;;;3.90;99.90;;;;;;4861804;29;20098;-82
2021/11/27 03:56:13;;;;;;;4.18;0.28;;;3.80;99.90;;;;;;4864927;29;20065;-81
2021/11/27 03:58:39;;;;;;;0.30;0.20;;;3.90;99.90;;;;;;4845529;29;20034;-83
2021/11/27 04:01:08;;;;;;;0.93;0.43;;;3.80;99.90;;;;;;4851733;29;20372;-83
2021/11/27 04:03:36;;;;;;;1.42;0.28;;;3.80;99.90;;;;;;4845213;29;20105;-82
2021/11/27 04:06:02;;;;;;;0.53;0.30;;;3.80;99.90;;;;;;4845230;29;20394;-82
2021/11/27 04:08:28;;;;;;;0.40;0.10;;;3.80;99.90;;;;;;4841331;29;20076;-82
2021/11/27 04:10:55;;;;;;;0.93;0.10;;;3.80;99.90;;;;;;4842113;29;20058;-81
2021/11/27 04:13:22;;;;;;;0.33;0.30;;;3.80;99.90;;;;;;4843158;29;20041;-82
2021/11/27 04:15:47;;;;;;;2.47;0.45;;;3.80;99.90;;;;;;4851812;29;20040;-81
2021/11/27 04:18:13;;;;;;;0.17;0.17;;;3.80;99.90;;;;;;4843489;29;20492;-80
2021/11/27 04:20:40;;;;;;;0.57;0.05;;;3.80;99.90;;;;;;4840599;29;20113;-81
2021/11/27 04:23:07;;;;;;;0.30;0.10;;;3.80;99.90;;;;;;4841397;29;20050;-79
2021/11/27 04:25:32;;;;;;;1.85;0.15;;;3.70;99.90;;;;;;4843301;29;20178;-82
2021/11/27 04:27:58;;;;;;;0.43;0.30;;;3.70;99.90;;;;;;4841586;29;20073;-81
2021/11/27 04:30:26;;;;;;;1.05;0.40;;;3.60;99.90;;;;;;4844356;29;20037;-83
2021/11/27 04:32:53;;;;;;;0.38;0.10;;;3.60;99.90;;;;;;4843366;29;20109;-81
2021/11/27 04:35:21;;;;;;;0.47;0.20;;;3.60;99.90;;;;;;4842454;29;20033;-82
2021/11/27 04:37:46;;;;;;;0.98;0.13;;;3.60;99.90;;;;;;4843225;29;20058;-80
2021/11/27 04:40:13;;;;;;;0.75;0.52;;;3.60;99.90;;;;;;4842154;29;20033;-82
2021/11/27 04:42:39;;;;;;;0.88;0.70;;;3.70;99.90;;;;;;4843495;29;20463;-82
2021/11/27 04:45:07;;;;;;;0.70;0.20;;;3.70;99.90;;;;;;4843148;29;20114;-82
2021/11/27 04:47:33;;;;;;;0.32;0.20;;;3.70;99.90;;;;;;4843558;29;20398;-82
2021/11/27 04:49:59;;;;;;;2.17;0.77;;;3.70;99.90;;;;;;4841950;29;20046;-82
2021/11/27 04:52:25;;;;;;;0.20;0.10;;;3.80;99.90;;;;;;4843306;29;20030;-82
2021/11/27 04:54:52;;;;;;;0.70;0.35;;;3.80;99.90;;;;;;4841408;29;20376;-81
2021/11/27 04:57:18;;;;;;;0.68;0.22;;;3.90;99.90;;;;;;4842105;29;20034;-81
2021/11/27 04:59:45;;;;;;;0.50;0.32;;;3.90;99.90;;;;;;4843066;29;20492;-82
2021/11/27 05:02:11;;;;;;;0.30;0.25;;;4.00;99.90;;;;;;4841027;29;20107;-82
2021/11/27 05:04:37;;;;;;;5.15;0.93;;;4.00;99.90;;;;;;4843126;29;20451;-81
2021/11/27 05:07:03;;;;;;;0.50;0.32;;;4.00;99.90;;;;;;4841349;29;20038;-81
2021/11/27 05:09:29;;;;;;;1.00;0.60;;;4.10;99.90;;;;;;4855493;29;20123;-81
2021/11/27 05:11:54;;;;;;;4.03;0.75;;;4.10;99.90;;;;;;4844581;29;20046;-81
2021/11/27 05:14:20;;;;;;;0.65;0.50;;;4.20;99.90;;;;;;4844355;29;20479;-81
2021/11/27 05:16:46;;;;;;;3.28;0.22;;;4.20;99.90;;;;;;4844835;29;20079;-81
2021/11/27 05:19:11;;;;;;;0.80;0.30;;;4.20;99.90;;;;;;4860008;29;20097;-81
2021/11/27 05:21:37;;;;;;;1.42;1.00;;;4.30;99.90;;;;;;4844439;29;20052;-81
2021/11/27 05:24:03;;;;;;;0.63;0.40;;;4.30;99.90;;;;;;4843524;29;20045;-81
2021/11/27 05:26:29;;;;;;;0.50;0.30;;;4.30;99.90;;;;;;4861087;29;20038;-79
2021/11/27 05:28:54;;;;;;;1.23;0.57;;;4.20;99.90;;;;;;4860368;29;20127;-79
2021/11/27 05:31:22;;;;;;;3.25;0.47;;;4.20;99.90;;;;;;4844378;29;20092;-80
2021/11/27 05:33:59;;;;;;;2.57;0.67;;;4.20;99.90;;;;;;4860639;29;20030;-80
2021/11/27 05:36:27;;;;;;;2.27;0.40;;;4.30;99.90;;;;;;4843740;29;20041;-80
2021/11/27 05:38:53;;;;;;;5.30;0.50;;;4.30;99.90;;;;;;4843920;29;20358;-80
2021/11/27 05:41:19;;;;;;;5.13;0.30;;;4.30;99.90;;;;;;4843938;29;20436;-80
2021/11/27 05:43:45;;;;;;;1.10;0.50;;;4.20;99.90;;;;;;4843554;29;20090;-80
2021/11/27 05:46:11;;;;;;;3.72;0.80;;;4.30;99.90;;;;;;4860777;29;20034;-80
2021/11/27 05:48:37;;;;;;;2.92;1.05;;;4.30;99.90;;;;;;4860682;29;20026;-80
2021/11/27 05:51:04;;;;;;;1.10;0.60;;;4.20;99.90;;;;;;4844069;29;20045;-80
2021/11/27 05:53:29;;;;;;;0.60;0.60;;;4.20;99.90;;;;;;4843716;29;20101;-80
2021/11/27 05:55:55;;;;;;;2.00;0.98;;;4.30;99.90;;;;;;4862216;29;20045;-79
2021/11/27 05:58:22;;;;;;;2.30;0.90;;;4.30;99.90;;;;;;4864269;29;20040;-81
2021/11/27 06:00:48;;;;;;;2.80;0.98;;;4.30;99.90;;;;;;4864090;29;20033;-80
2021/11/27 06:03:14;;;;;;;0.88;0.77;;;4.30;99.90;;;;;;4863884;29;20411;-81
2021/11/27 06:05:40;;;;;;;0.80;0.70;;;4.30;99.90;;;;;;4864191;29;20025;-80
2021/11/27 06:08:06;;;;;;;0.85;0.80;;;4.30;99.90;;;;;;4846093;29;20041;-80
2021/11/27 06:10:32;;;;;;;1.00;0.75;;;4.30;99.90;;;;;;4847431;29;20025;-80
2021/11/27 06:12:58;;;;;;;1.25;0.68;;;4.30;99.90;;;;;;4863641;29;20040;-79
2021/11/27 06:15:24;;;;;;;4.15;0.98;;;4.20;99.90;;;;;;4847314;29;20030;-80
2021/11/27 06:17:49;;;;;;;1.80;0.90;;;4.30;99.90;;;;;;4863709;29;20083;-80
2021/11/27 06:20:15;;;;;;;0.80;0.80;;;4.30;99.90;;;;;;4847270;29;20038;-80
2021/11/27 06:22:41;;;;;;;4.13;1.00;;;4.30;99.90;;;;;;4863847;29;20036;-81
2021/11/27 06:25:08;;;;;;;3.95;1.10;;;4.30;99.90;;;;;;4854802;29;20044;-81
2021/11/27 06:27:33;;;;;;;5.05;1.58;;;4.40;99.90;;;;;;4852569;29;20045;-81
2021/11/27 06:29:59;;;;;;;1.48;0.80;;;4.30;99.90;;;;;;4847693;29;20033;-81
2021/11/27 06:32:25;;;;;;;0.80;0.65;;;4.30;99.90;;;;;;4847491;29;20026;-81
2021/11/27 06:34:52;;;;;;;3.10;1.23;;;4.30;99.90;;;;;;4863761;29;20442;-81
2021/11/27 06:37:21;;;;;;;4.20;0.82;;;4.30;99.90;;;;;;4863582;29;20049;-81
2021/11/27 06:39:49;;;;;;;1.33;0.70;;;4.20;99.90;;;;;;4863935;29;20052;-82
2021/11/27 06:42:15;;;;;;;8.10;1.40;;;4.30;99.90;;;;;;4863748;29;20109;-81
2021/11/27 06:44:47;;;;;;;1.15;0.80;;;4.20;99.90;;;;;;4847193;29;20049;-83
2021/11/27 06:47:16;;;;;;;4.35;1.00;;;4.20;99.90;;;;;;4863917;29;20113;-83
2021/11/27 06:49:42;;;;;;;2.95;0.90;;;4.20;99.90;;;;;;4846816;29;20025;-82
2021/11/27 06:52:08;;;;;;;0.80;0.77;;;4.20;99.90;;;;;;4862799;29;20030;-81
2021/11/27 06:54:34;;;;;;;2.30;1.05;;;4.10;99.90;;;;;;4846243;29;20061;-83
2021/11/27 06:56:59;;;;;;;0.85;0.80;;;4.10;99.90;;;;;;4862876;29;20436;-83
2021/11/27 06:59:26;;;;;;;0.80;0.80;;;4.10;99.90;;;;;;4863254;29;21831;-83
2021/11/27 07:01:52;;;;;;;2.28;0.90;;;4.10;99.90;;;;;;4862936;29;20120;-83
2021/11/27 07:04:18;;;;;;;1.55;0.73;;;4.10;99.90;;;;;;4862099;29;20117;-82
2021/11/27 07:06:44;;;;;;;1.42;0.80;;;4.10;99.90;;;;;;4846100;29;20472;-83
2021/11/27 07:09:10;;;;;;;0.93;0.93;;;4.00;99.90;;;;;;4862952;29;20045;-82
2021/11/27 07:11:36;;;;;;;2.33;1.10;;;4.00;99.90;;;;;;4862830;29;20037;-81
2021/11/27 07:14:02;;;;;;;0.95;0.73;;;4.00;99.90;;;;;;4863053;29;20059;-80
2021/11/27 07:16:28;;;;;;;1.40;1.15;;;4.10;99.90;;;;;;4862623;29;20065;-81
2021/11/27 07:18:54;;;;;;;7.82;1.00;;;4.10;99.90;;;;;;4863193;29;20036;-81
2021/11/27 07:21:19;;;;;;;1.60;1.20;;;4.10;99.90;;;;;;4867271;29;20108;-82
2021/11/27 07:23:45;;;;;;;4.22;0.90;;;4.00;99.90;;;;;;4846370;29;20091;-81
2021/11/27 07:26:11;;;;;;;4.15;1.30;;;4.00;99.90;;;;;;4846293;29;20034;-81
2021/11/27 07:28:36;;;;;;;3.17;0.95;;;4.00;99.90;;;;;;4844202;29;20037;-81
2021/11/27 07:31:02;;;;;;;1.42;0.90;;;4.00;99.90;;;;;;4862840;29;20029;-81
2021/11/27 07:33:28;;;;;;;1.67;1.15;;;4.10;99.90;;;;;;4845840;29;20037;-81
2021/11/27 07:35:54;;;;;;;1.55;0.98;;;4.10;99.90;;;;;;4845389;29;20029;-80
2021/11/27 07:38:19;;;;;;;1.35;0.93;;;4.10;99.90;;;;;;4846001;29;20029;-80
2021/11/27 07:40:45;;;;;;;5.60;0.85;;;4.10;99.90;;;;;;4845794;29;20033;-81
2021/11/27 07:43:11;;;;;;;1.05;0.90;;;4.20;99.90;;;;;;4862097;29;20085;-81
2021/11/27 07:45:36;;;;;;;3.22;1.02;;;4.20;99.90;;;;;;4845670;29;20108;-81
2021/11/27 07:48:03;;;;;;;1.48;1.08;;;4.20;99.90;;;;;;4845495;29;20017;-81
2021/11/27 07:50:29;;;;;;;2.90;1.60;;;4.20;99.90;;;;;;4862171;29;20052;-81
2021/11/27 07:52:55;;;;;;;3.25;1.17;;;4.20;99.90;;;;;;4862119;29;20100;-81
2021/11/27 07:55:21;;;;;;;2.45;0.90;;;4.20;99.90;;;;;;4862031;29;20090;-81
2021/11/27 07:57:47;;;;;;;4.03;1.27;;;4.20;99.90;;;;;;4845419;29;20025;-81
2021/11/27 08:00:13;;;;;;;5.35;0.70;;;4.30;99.90;;;;;;4862321;29;20066;-81
2021/11/27 08:02:39;;;;;;;2.28;1.08;;;4.30;99.90;;;;;;4845512;29;20037;-80
2021/11/27 08:05:06;;;;;;;1.23;0.93;;;4.30;99.90;;;;;;4861840;29;20380;-81
2021/11/27 08:07:35;;;;;;;2.20;0.70;;;4.30;99.90;;;;;;4842997;29;20029;-81
2021/11/27 08:10:01;;;;;;;1.38;0.63;;;4.30;99.90;;;;;;4862324;29;20072;-81
2021/11/27 08:12:26;;;;;;;4.65;0.70;;;4.20;99.90;;;;;;4862495;29;20515;-81
2021/11/27 08:14:52;;;;;;;1.15;0.70;;;4.20;99.90;;;;;;4845890;29;20104;-82
2021/11/27 08:17:18;;;;;;;1.63;0.40;;;4.10;99.90;;;;;;4844726;29;20136;-80
2021/11/27 08:19:43;;;;;;;2.22;0.50;;;4.20;99.90;;;;;;4843574;29;20041;-81
2021/11/27 08:22:09;;;;;;;2.03;0.80;;;4.10;99.90;;;;;;4844742;29;20098;-80
2021/11/27 08:24:34;;;;;;;1.80;0.70;;;4.20;99.90;;;;;;4844688;29;20033;-80
2021/11/27 08:27:00;;;;;;;6.22;1.05;;;4.20;99.90;;;;;;4859832;29;20464;-82
2021/11/27 08:29:26;;;;;;;0.65;0.60;;;4.20;99.90;;;;;;4849812;29;20049;-80
2021/11/27 08:31:51;;;;;;;2.22;0.50;;;4.30;99.90;;;;;;4863692;29;20029;-81
2021/11/27 08:34:17;;;;;;;1.38;1.23;;;4.30;99.90;;;;;;4878302;29;20044;-81
2021/11/27 08:36:43;;;;;;;0.85;0.85;;;4.30;99.90;;;;;;4879955;29;20022;-79
2021/11/27 08:39:09;;;;;;;1.52;1.42;;;4.30;99.90;;;;;;4865469;29;20049;-81
2021/11/27 08:41:35;;;;;;;4.82;0.95;;;4.20;99.90;;;;;;4863869;29;20026;-81
2021/11/27 08:44:01;;;;;;;0.80;0.63;;;4.20;99.90;;;;;;4881645;29;20037;-80
2021/11/27 08:46:26;;;;;;;3.58;0.68;;;4.20;99.90;;;;;;4883450;29;20089;-80
2021/11/27 08:48:52;;;;;;;2.63;0.50;;;4.20;99.90;;;;;;4868202;29;20057;-80
2021/11/27 08:51:18;;;;;;;2.25;0.32;;;4.10;99.90;;;;;;4874753;29;20041;-79
2021/11/27 08:53:45;;;;;;;2.72;1.38;;;4.10;99.90;;;;;;4879203;29;20050;-80
2021/11/27 08:56:11;;;;;;;5.00;0.60;;;3.90;99.90;;;;;;4867573;29;20018;-80
2021/11/27 08:58:39;;;;;;;1.05;0.55;;;3.90;99.90;;;;;;4867028;29;20010;-79
2021/11/27 09:01:06;;;;;;;6.53;0.80;;;3.90;99.90;;;;;;4865623;29;20097;-78
2021/11/27 09:03:32;;;;;;;3.60;0.70;;;3.90;99.90;;;;;;4856682;29;20070;-79
2021/11/27 09:06:00;;;;;;;4.88;0.70;;;3.90;99.90;;;;;;4868975;29;20097;-78
2021/11/27 09:08:27;;;;;;;8.45;0.60;;;3.90;99.90;;;;;;4885317;29;20052;-80
2021/11/27 09:10:53;;;;;;;0.80;0.80;;;3.90;99.90;;;;;;4885276;29;20028;-79
2021/11/27 09:13:19;;;;;;;3.55;0.82;;;4.00;99.90;;;;;;4881552;29;20041;-80
2021/11/27 09:15:45;;;;;;;2.20;0.77;;;3.90;99.90;;;;;;4883296;29;20026;-78
2021/11/27 09:18:11;;;;;;;1.30;0.98;;;3.90;99.90;;;;;;4865564;29;20044;-78
2021/11/27 09:20:37;;;;;;;5.45;1.00;;;3.90;99.90;;;;;;4864642;29;20033;-78
2021/11/27 09:23:04;;;;;;;2.75;0.68;;;3.90;99.90;;;;;;4885158;29;20013;-80
2021/11/27 09:25:30;;;;;;;1.55;0.93;;;3.90;99.90;;;;;;4869069;29;20041;-79
2021/11/27 09:27:56;;;;;;;1.77;1.08;;;4.00;99.90;;;;;;4869050;29;20034;-79
2021/11/27 09:30:23;;;;;;;2.00;1.55;;;4.00;99.90;;;;;;4869515;29;20029;-80
2021/11/27 09:32:49;;;;;;;2.88;2.00;;;4.00;99.90;;;;;;4872882;29;20029;-81
2021/11/27 09:35:14;;;;;;;8.15;2.33;;;4.00;99.90;;;;;;4872569;29;20013;-80
2021/11/27 09:37:41;;;;;;;4.45;2.72;;;4.00;99.90;;;;;;4871791;29;20014;-81
2021/11/27 09:40:08;;;;;;;6.07;2.40;;;4.00;99.90;;;;;;4904881;29;20017;-80
2021/11/27 09:42:36;;;;;;;6.70;3.17;;;3.90;99.90;;;;;;4871117;29;20025;-78
2021/11/27 09:45:04;;;;;;;5.10;3.10;;;3.90;99.90;;;;;;4875320;29;20041;-80
2021/11/27 09:47:32;;;;;;;6.45;3.30;;;3.90;99.90;;;;;;4869906;29;20045;-80
2021/11/27 09:49:58;;;;;;;;;;;4.00;99.90;;;;;;4867985;29;20039;-79
2021/11/27 09:52:23;;;;;;;5.53;2.75;;;3.90;99.90;;;;;;4849264;29;19916;-80
2021/11/27 09:54:50;;;;;;;6.15;3.58;;;3.90;99.90;;;;;;4849389;29;20074;-81
2021/11/27 09:57:16;;;;;;;5.63;3.35;;;3.90;99.90;;;;;;4847921;29;20053;-80
2021/11/27 09:59:46;;;;;;;7.57;3.65;;;4.00;99.90;;;;;;4849156;29;20079;-82
2021/11/27 10:02:13;;;;;;;8.20;3.05;;;3.90;99.90;;;;;;4848547;29;20052;-81
2021/11/27 10:04:43;;;;;;;10.07;3.60;;;4.00;99.90;;;;;;4847944;29;20053;-80
2021/11/27 10:07:12;;;;;;;13.40;3.78;;;4.00;99.90;;;;;;4848231;29;20029;-81
2021/11/27 10:09:39;;;;;;;4.97;3.10;;;4.10;99.90;;;;;;4864134;29;20053;-82
2021/11/27 10:12:07;;;;;;;9.68;2.88;;;4.10;99.90;;;;;;4864396;29;20041;-81
2021/11/27 10:14:34;;;;;;;6.28;3.13;;;4.10;99.90;;;;;;4846414;29;20036;-80
2021/11/27 10:17:04;;;;;;;8.87;2.87;;;4.20;99.90;;;;;;4863834;29;20042;-81
2021/11/27 10:19:53;;;;;;;13.48;3.67;;;4.20;99.90;;;;;;4847182;29;20029;-82
2021/11/27 10:22:25;;;;;;;20.67;4.78;;;4.10;99.90;;;;;;4864416;29;20037;-80
2021/11/27 10:24:51;;;;;;;19.65;4.78;;;4.20;99.90;;;;;;4847623;29;20076;-81
2021/11/27 10:27:23;;;;;;;18.10;6.82;;;4.20;99.90;;;;;;4847259;29;20061;-81
2021/11/27 10:30:08;;;;;;;17.58;7.20;;;4.30;99.90;;;;;;4863125;29;20487;-81
2021/11/27 10:32:38;;;;;;;22.95;8.20;;;4.30;99.90;;;;;;4847343;29;20518;-80
2021/11/27 10:35:07;;;;;;;18.90;9.15;;;4.30;99.90;;;;;;4845885;29;20070;-80
2021/11/27 10:37:40;;;;;;;35.35;9.73;;;4.30;99.90;;;;;;4859874;29;20121;-80
2021/11/27 10:40:22;;;;;;;24.20;8.20;;;4.40;99.90;;;;;;4862177;29;20090;-80
2021/11/27 10:42:58;;;;;;;27.63;7.95;;;4.40;99.90;;;;;;4844591;29;20042;-79
2021/11/27 10:45:28;;;;;;;19.65;7.03;;;4.40;99.90;;;;;;4861786;29;20605;-79
2021/11/27 10:48:08;;;;;;;22.45;6.80;;;4.40;99.90;;;;;;4863479;29;20034;-81
2021/11/27 10:50:44;;;;;;;28.52;7.50;;;4.40;99.90;;;;;;4863352;29;20487;-80
2021/11/27 10:53:13;;;;;;;25.35;7.50;;;4.50;99.90;;;;;;4862638;29;20037;-78
2021/11/27 10:55:40;;;;;;;56.30;23.02;;;4.50;99.90;;;;;;4844750;29;20038;-80
2021/11/27 10:58:07;;;;;;;15.55;5.95;;;4.50;99.90;;;;;;4846876;29;20028;-79
2021/11/27 11:00:35;;;;;;;15.00;4.63;;;4.60;99.90;;;;;;4852823;29;20042;-79
2021/11/27 11:03:02;;;;;;;25.48;6.22;;;4.70;99.90;;;;;;4863457;29;20029;-79
2021/11/27 11:05:34;;;;;;;23.47;7.17;;;4.80;99.90;;;;;;4863436;29;20033;-80
2021/11/27 11:08:01;;;;;;;13.75;3.78;;;4.90;99.90;;;;;;4862636;29;20028;-78
2021/11/27 11:10:32;;;;;;;20.73;4.13;;;5.00;99.90;;;;;;4862259;29;20048;-78
2021/11/27 11:13:01;;;;;;;20.70;8.77;;;5.10;99.90;;;;;;4859723;29;20447;-79
2021/11/27 11:15:39;;;;;;;17.63;3.38;;;5.10;99.90;;;;;;4849494;29;20030;-79
2021/11/27 11:18:05;;;;;;;;;;;5.00;99.90;;;;;;4847381;29;20033;-78
2021/11/27 11:20:31;;;;;;;15.35;3.15;;;5.00;99.90;;;;;;4862885;29;19912;-78
2021/11/27 11:23:12;;;;;;;21.23;3.13;;;5.00;99.90;;;;;;4846560;29;20053;-79
2021/11/27 11:25:57;;;;;;;34.67;11.95;;;5.00;99.90;;;;;;4852563;29;20082;-79
2021/11/27 11:28:25;;;;;;;15.10;4.05;;;4.90;99.90;;;;;;4862111;29;20526;-78
2021/11/27 11:30:55;;;;;;;20.27;5.28;;;4.90;99.90;;;;;;4863002;29;20036;-79
2021/11/27 11:33:23;;;;;;;20.73;6.28;;;4.90;99.90;;;;;;4860679;29;20073;-79
2021/11/27 11:35:49;;;;;;;21.13;4.28;;;4.90;99.90;;;;;;4863039;29;20033;-79
2021/11/27 11:38:16;;;;;;;23.30;6.10;;;4.90;99.90;;;;;;4838029;29;20514;-79
2021/11/27 11:40:44;;;;;;;2.63;1.70;;;4.90;99.90;;;;;;4862537;29;20162;-79
2021/11/27 11:43:10;;;;;;;9.27;3.50;;;4.90;99.90;;;;;;4846220;29;20069;-78
2021/11/27 11:45:37;;;;;;;14.57;4.07;;;4.90;99.90;;;;;;4846763;29;20150;-79
2021/11/27 11:48:05;;;;;;;41.33;10.45;;;4.90;99.90;;;;;;4858222;29;20038;-81
2021/11/27 11:50:36;;;;;;;30.23;9.05;;;4.90;99.90;;;;;;4849046;29;20045;-79
2021/11/27 11:53:08;;;;;;;26.20;10.65;;;4.90;99.90;;;;;;4846269;29;20029;-79
2021/11/27 11:55:35;;;;;;;16.17;5.57;;;4.90;99.90;;;;;;4846994;29;20034;-83
2021/11/27 11:58:01;;;;;;;8.23;2.08;;;5.00;99.90;;;;;;4863187;29;20057;-83
2021/11/27 12:00:42;;;;;;;11.60;1.70;;;5.00;99.90;;;;;;4863010;29;20033;-78
2021/11/27 12:03:11;;;;;;;18.05;8.55;;;5.00;99.90;;;;;;4861982;29;20165;-79
2021/11/27 12:06:02;;;;;;;;;;;4.90;99.90;;;;;;4862992;29;20104;-80
2021/11/27 12:08:48;;;;;;;13.63;3.38;;;4.90;99.90;;;;;;4853977;29;19916;-80
2021/11/27 12:11:42;;;;;;;23.27;11.32;;;4.80;99.90;;;;;;4833063;29;20045;-80
2021/11/27 12:14:26;;;;;;;10.55;2.45;;;4.80;99.90;;;;;;4863072;29;20037;-79
2021/11/27 12:17:03;;;;;;;9.30;2.83;;;4.80;99.90;;;;;;4862078;29;20029;-80
2021/11/27 12:19:37;;;;;;;4.07;3.00;;;4.80;99.90;;;;;;4873419;29;20391;-79
2021/11/27 12:22:24;;;;;;;8.63;3.75;;;4.90;99.90;;;;;;4871698;29;20387;-80
2021/11/27 12:25:10;;;;;;;11.20;4.22;;;4.80;99.90;;;;;;4862793;29;20041;-80
2021/11/27 12:27:58;;;;;;;17.67;5.38;;;4.80;99.90;;;;;;4862756;29;20041;-79
2021/11/27 12:30:25;;;;;;;13.80;4.50;;;4.70;99.90;;;;;;4845705;29;20034;-80
2021/11/27 12:32:51;;;;;;;12.40;1.65;;;4.70;99.90;;;;;;4861198;29;20058;-78
2021/11/27 12:35:32;;;;;;;6.40;1.98;;;4.70;99.90;;;;;;4844484;29;20025;-79
2021/11/27 12:38:07;;;;;;;16.58;3.42;;;4.80;99.90;;;;;;4843061;29;20050;-80
2021/11/27 12:40:35;;;;;;;21.60;3.50;;;4.70;99.90;;;;;;4845141;29;20128;-83
2021/11/27 12:43:11;;;;;;;;;;;4.70;99.90;;;;;;4858509;29;21559;-78
2021/11/27 12:45:39;;;;;;;11.93;3.63;;;4.70;99.90;;;;;;4860838;29;19980;-80
2021/11/27 12:48:34;;;;;;;8.85;2.88;;;4.70;99.90;;;;;;4847605;29;20048;-80
2021/11/27 12:51:22;;;;;;;17.63;2.78;;;4.70;99.90;;;;;;4862117;29;20038;-80
2021/11/27 12:54:04;;;;;;;51.33;23.75;;;4.60;99.90;;;;;;4843681;29;20034;-80
2021/11/27 12:56:47;;;;;;;4.18;3.17;;;4.60;99.90;;;;;;4846257;29;20041;-80
2021/11/27 12:59:16;;;;;;;10.55;3.63;;;4.50;99.90;;;;;;4861789;29;20025;-80
2021/11/27 13:01:42;;;;;;;9.65;1.77;;;4.50;99.90;;;;;;4859233;29;20125;-80